Time;durP1;ratioP1;P1;durP2;ratioP2;P2;SDS_P1;SDS_P2;PMS_P1;PMS_P2;Temp;Humidity;BMP_temperature;BMP_pressure;BME280_temperature;BME280_humidity;BME280_pressure;Samples;Min_cycle;Max_cycle;Signal;HPM_P1;HPM_P2
2022/12/24 00:00:48;;;;;;;8.77;3.63;;;;;;;12.70;100.00;97628.16;4140588;28;21046;-87
2022/12/24 00:02:51;;;;;;;5.77;2.50;;;;;;;12.68;100.00;97630.06;4167153;28;20642;-88
2022/12/24 00:04:54;;;;;;;7.30;2.70;;;;;;;12.66;100.00;97628.53;4150527;28;20674;-87
2022/12/24 00:07:03;;;;;;;6.20;3.23;;;;;;;12.66;100.00;97627.69;4164570;28;20645;-87
2022/12/24 00:09:07;;;;;;;6.60;2.80;;;;;;;12.66;100.00;97625.06;4150028;28;20675;-87
2022/12/24 00:11:11;;;;;;;9.17;4.43;;;;;;;12.67;100.00;97634.59;4153973;28;20688;-87
2022/12/24 00:13:14;;;;;;;6.70;3.93;;;;;;;12.66;100.00;97623.31;4156260;28;20641;-87
2022/12/24 00:15:17;;;;;;;7.23;3.33;;;;;;;12.65;100.00;97632.09;4151704;28;20638;-87
2022/12/24 00:17:20;;;;;;;9.53;3.60;;;;;;;12.62;100.00;97642.00;4150557;28;20634;-87
2022/12/24 00:19:23;;;;;;;6.50;3.37;;;;;;;12.64;100.00;97624.38;4163585;28;20626;-87
2022/12/24 00:21:26;;;;;;;6.90;3.13;;;;;;;12.65;100.00;97623.44;4153624;28;21704;-87
2022/12/24 00:23:30;;;;;;;9.07;3.43;;;;;;;12.65;100.00;97620.81;4154186;28;20677;-87
2022/12/24 00:25:34;;;;;;;8.10;3.20;;;;;;;12.64;100.00;97619.16;4154478;28;21204;-87
2022/12/24 00:27:37;;;;;;;4.17;2.70;;;;;;;12.63;100.00;97614.88;4154546;28;20654;-87
2022/12/24 00:29:40;;;;;;;6.93;2.67;;;;;;;12.61;100.00;97620.22;4155615;28;20796;-87
2022/12/24 00:31:43;;;;;;;8.17;2.70;;;;;;;12.58;100.00;97648.44;4153026;28;20630;-87
2022/12/24 00:33:47;;;;;;;6.57;3.93;;;;;;;12.51;100.00;97653.38;4189110;28;20721;-87
2022/12/24 00:35:51;;;;;;;9.53;5.47;;;;;;;12.47;100.00;97651.94;4140910;28;20635;-87
2022/12/24 00:37:54;;;;;;;9.00;4.80;;;;;;;12.46;100.00;97659.91;4157530;28;20733;-87
2022/12/24 00:39:57;;;;;;;7.73;4.30;;;;;;;12.44;100.00;97662.66;4153558;28;20626;-87
2022/12/24 00:42:01;;;;;;;8.80;3.53;;;;;;;12.43;100.00;97663.63;4154269;28;20652;-87
2022/12/24 00:44:08;;;;;;;9.83;4.90;;;;;;;12.44;100.00;97667.06;4152427;28;20653;-87
2022/12/24 00:46:11;;;;;;;7.93;2.23;;;;;;;12.44;100.00;97667.06;4155002;28;20641;-88
2022/12/24 00:48:15;;;;;;;7.63;2.80;;;;;;;12.43;100.00;97661.03;4156372;28;20994;-88
2022/12/24 00:50:18;;;;;;;6.37;2.70;;;;;;;12.44;100.00;97662.66;4155728;28;21217;-89
2022/12/24 00:52:21;;;;;;;9.67;3.30;;;;;;;12.45;100.00;97658.28;4138414;28;20622;-89
2022/12/24 00:54:24;;;;;;;6.97;2.80;;;;;;;12.46;100.00;97668.63;4155904;28;20714;-88
2022/12/24 00:56:27;;;;;;;9.00;3.10;;;;;;;12.48;100.00;97668.47;4152952;28;20634;-89
2022/12/24 00:58:32;;;;;;;9.47;3.70;;;;;;;12.50;100.00;97674.41;4167463;28;20646;-89
2022/12/24 01:00:36;;;;;;;11.03;3.43;;;;;;;12.49;100.00;97689.25;4153372;28;20648;-88
2022/12/24 01:02:39;;;;;;;11.20;3.20;;;;;;;12.50;100.00;97685.69;4169645;28;20632;-88
2022/12/24 01:07:04;;;;;;;7.13;2.83;;;;;;;12.52;100.00;97690.81;4156048;28;20634;-89
2022/12/24 01:09:07;;;;;;;9.17;2.87;;;;;;;12.52;100.00;97696.84;4171390;28;20668;-88
2022/12/24 01:11:11;;;;;;;9.23;2.33;;;;;;;12.54;100.00;97694.97;4185135;28;20693;-88
2022/12/24 01:13:14;;;;;;;12.03;3.07;;;;;;;12.53;100.00;97690.69;4155835;28;20633;-88
2022/12/24 01:15:19;;;;;;;8.50;2.43;;;;;;;12.55;100.00;97706.25;4135276;28;20634;-89
2022/12/24 01:17:22;;;;;;;6.37;1.97;;;;;;;12.55;100.00;97706.25;4153306;28;20671;-89
2022/12/24 01:19:25;;;;;;;6.70;2.80;;;;;;;12.56;100.00;97697.47;4136258;28;20669;-89
2022/12/24 01:21:28;;;;;;;6.30;2.27;;;;;;;12.55;100.00;97704.44;4152394;28;20695;-89
2022/12/24 01:23:31;;;;;;;6.80;2.30;;;;;;;12.57;100.00;97712.16;4164544;28;20992;-90
2022/12/24 01:25:34;;;;;;;8.03;2.40;;;;;;;12.52;100.00;97707.31;4151505;28;20727;-89
2022/12/24 01:27:37;;;;;;;13.30;2.67;;;;;;;12.51;100.00;97720.53;4169635;28;20642;-89
2022/12/24 01:29:41;;;;;;;10.03;2.77;;;;;;;12.48;100.00;97739.09;4152613;28;20642;-89
2022/12/24 01:31:45;;;;;;;10.77;2.73;;;;;;;12.46;100.00;97748.84;4139380;28;20644;-89
2022/12/24 01:33:49;;;;;;;10.07;3.53;;;;;;;12.49;100.00;97757.28;4154786;28;20619;-89
2022/12/24 01:35:52;;;;;;;14.20;2.73;;;;;;;12.37;100.00;97745.22;4155407;28;20665;-88
2022/12/24 01:37:55;;;;;;;7.57;2.50;;;;;;;12.30;100.00;97751.88;4149159;28;20636;-89
2022/12/24 01:44:41;;;;;;;5.13;2.00;;;;;;;11.94;100.00;97754.00;4156313;28;21072;-89
2022/12/24 01:46:46;;;;;;;6.00;2.50;;;;;;;11.86;100.00;97753.78;4155971;28;20768;-91
2022/12/24 01:48:50;;;;;;;5.43;1.97;;;;;;;11.76;100.00;97763.28;4155136;28;20635;-90
2022/12/24 01:50:58;;;;;;;7.33;1.73;;;;;;;11.79;100.00;97762.22;4159221;28;20645;-89
2022/12/24 01:53:01;;;;;;;9.20;2.50;;;;;;;11.73;100.00;97769.66;4141273;28;20626;-89
2022/12/24 01:55:06;;;;;;;6.60;1.70;;;;;;;11.67;100.00;97773.63;4177940;28;21160;-89
2022/12/24 01:57:11;;;;;;;7.57;1.90;;;;;;;11.68;100.00;97777.03;4165246;28;20656;-89
2022/12/24 01:59:16;;;;;;;5.60;2.00;;;;;;;11.68;100.00;97777.91;4155158;28;20643;-89
2022/12/24 02:01:19;;;;;;;4.10;1.70;;;;;;;11.68;100.00;97784.88;4153936;28;20644;-89
2022/12/24 02:03:23;;;;;;;5.77;2.10;;;;;;;11.68;100.00;97790.09;4157660;28;20723;-88
2022/12/24 02:05:29;;;;;;;6.40;2.03;;;;;;;11.69;100.00;97807.44;4153480;28;20665;-89
2022/12/24 02:07:33;;;;;;;4.60;2.10;;;;;;;11.68;100.00;97821.44;4135870;28;21198;-89
2022/12/24 02:09:36;;;;;;;7.53;2.37;;;;;;;11.69;100.00;97823.13;4156954;28;20661;-89
2022/12/24 02:11:42;;;;;;;5.87;1.93;;;;;;;11.71;100.00;97826.44;4155735;28;20637;-89
2022/12/24 02:13:50;;;;;;;8.10;2.27;;;;;;;11.73;100.00;97819.31;4149597;28;20744;-88
2022/12/24 02:16:03;;;;;;;8.23;3.00;;;;;;;11.73;100.00;97812.31;4169930;28;21068;-89
2022/12/24 02:18:10;;;;;;;5.90;2.33;;;;;;;11.75;100.00;97818.25;4153290;28;20993;-89
2022/12/24 02:20:56;;;;;;;13.83;2.63;;;;;;;11.79;100.00;97817.91;4154485;28;21195;-89
2022/12/24 02:23:09;;;;;;;8.13;2.03;;;;;;;11.80;100.00;97816.09;4159887;28;20667;-89
2022/12/24 02:25:34;;;;;;;9.20;3.13;;;;;;;11.80;100.00;97809.13;4153484;28;20663;-89
2022/12/24 02:27:45;;;;;;;9.57;4.03;;;;;;;11.79;100.00;97820.50;4155211;28;22738;-90
2022/12/24 02:30:04;;;;;;;10.63;2.60;;;;;;;11.77;100.00;97826.78;4160128;28;20640;-89
2022/12/24 02:32:12;;;;;;;5.80;2.63;;;;;;;11.80;100.00;97831.78;4173317;28;21036;-89
2022/12/24 02:34:18;;;;;;;11.40;2.67;;;;;;;11.78;100.00;97844.97;4135731;28;20686;-89
2022/12/24 02:36:25;;;;;;;11.80;2.70;;;;;;;11.75;100.00;97842.59;4141823;28;20626;-88
2022/12/24 02:38:31;;;;;;;9.90;2.40;;;;;;;11.74;100.00;97853.16;4168338;28;20628;-89
2022/12/24 02:40:37;;;;;;;7.50;2.80;;;;;;;11.74;100.00;97847.94;4158136;28;20696;-89
2022/12/24 02:42:42;;;;;;;8.10;2.57;;;;;;;11.75;100.00;97843.56;4157918;28;21385;-89
2022/12/24 02:44:49;;;;;;;5.80;2.77;;;;;;;11.75;100.00;97829.53;4154105;28;21062;-88
2022/12/24 02:46:53;;;;;;;9.33;2.90;;;;;;;11.75;100.00;97820.03;4172079;28;21104;-89
2022/12/24 02:48:56;;;;;;;9.00;2.73;;;;;;;11.76;100.00;97825.97;4155164;28;20610;-90
2022/12/24 02:51:03;;;;;;;12.73;2.97;;;;;;;11.76;100.00;97817.31;4153450;28;20645;-89
2022/12/24 02:53:09;;;;;;;10.47;2.53;;;;;;;11.77;100.00;97825.03;4154395;28;21024;-89
2022/12/24 02:55:15;;;;;;;11.03;2.97;;;;;;;11.76;100.00;97836.41;4155474;28;21196;-89
2022/12/24 02:57:22;;;;;;;11.23;2.83;;;;;;;11.73;100.00;97841.06;4139054;28;21217;-89
2022/12/24 02:59:35;;;;;;;10.80;2.80;;;;;;;11.73;100.00;97829.75;4188048;28;20667;-89
2022/12/24 03:01:46;;;;;;;8.00;3.17;;;;;;;11.72;100.00;97820.28;4141005;28;21065;-89
2022/12/24 03:04:00;;;;;;;13.43;2.80;;;;;;;11.71;100.00;97839.50;4187459;28;20674;-89
2022/12/24 03:06:08;;;;;;;12.47;2.80;;;;;;;11.68;100.00;97830.16;4185709;28;20659;-89
2022/12/24 03:08:16;;;;;;;12.93;3.47;;;;;;;11.66;100.00;97828.59;4171021;28;20635;-89
2022/12/24 03:10:23;;;;;;;13.37;4.10;;;;;;;11.65;100.00;97832.13;4151604;28;21147;-90
2022/12/24 03:12:30;;;;;;;10.00;3.80;;;;;;;11.64;100.00;97833.09;4136774;28;20621;-89
2022/12/24 03:14:34;;;;;;;14.37;4.63;;;;;;;11.64;100.00;97840.94;4151190;28;20632;-89
2022/12/24 03:16:37;;;;;;;12.97;3.60;;;;;;;11.64;100.00;97839.16;4155215;28;20633;-90
2022/12/24 03:18:44;;;;;;;10.60;3.10;;;;;;;11.62;100.00;97838.44;4182983;28;20672;-89
2022/12/24 03:20:53;;;;;;;7.43;2.80;;;;;;;11.65;100.00;97842.59;4149360;28;20641;-90
2022/12/24 03:22:57;;;;;;;10.53;2.60;;;;;;;11.67;100.00;97838.91;4156882;28;20649;-89
2022/12/24 03:25:00;;;;;;;10.63;2.90;;;;;;;11.69;100.00;97849.25;4151310;28;20686;-89
2022/12/24 03:27:03;;;;;;;17.83;3.60;;;;;;;11.71;100.00;97857.78;4136292;28;20674;-90
2022/12/24 03:29:07;;;;;;;8.77;2.43;;;;;;;11.72;100.00;97880.38;4154902;28;20634;-90
2022/12/24 03:31:10;;;;;;;9.47;2.93;;;;;;;11.70;100.00;97882.25;4169610;28;20629;-89
2022/12/24 03:33:14;;;;;;;10.10;2.73;;;;;;;11.71;100.00;97879.50;4170601;28;20734;-90
2022/12/24 03:35:17;;;;;;;13.83;3.60;;;;;;;11.70;100.00;97867.41;4159460;28;20647;-89
2022/12/24 03:37:22;;;;;;;10.53;3.17;;;;;;;11.71;100.00;97870.84;4155177;28;20633;-89
2022/12/24 03:39:25;;;;;;;11.90;2.83;;;;;;;11.71;100.00;97863.84;4159970;28;21263;-89
2022/12/24 03:41:28;;;;;;;13.07;2.67;;;;;;;11.73;100.00;97867.19;4141393;28;20637;-89
2022/12/24 03:43:32;;;;;;;8.77;2.57;;;;;;;11.73;100.00;97871.56;4190599;28;20624;-89
2022/12/24 03:45:35;;;;;;;11.57;2.60;;;;;;;11.74;100.00;97879.28;4151536;28;20646;-89
2022/12/24 03:47:38;;;;;;;9.10;2.70;;;;;;;11.75;100.00;97878.34;4166642;28;20681;-89
2022/12/24 03:49:41;;;;;;;9.43;3.10;;;;;;;11.75;100.00;97881.78;4153241;28;20666;-89
2022/12/24 03:51:44;;;;;;;7.00;2.70;;;;;;;11.76;100.00;97899.13;4187350;28;20670;-89
2022/12/24 03:53:49;;;;;;;14.10;2.93;;;;;;;11.78;100.00;97897.22;4150074;28;20634;-89
2022/12/24 03:55:52;;;;;;;12.60;3.00;;;;;;;11.79;100.00;97896.28;4189201;28;21245;-89
2022/12/24 03:57:55;;;;;;;8.53;3.00;;;;;;;11.81;100.00;97901.38;4184088;28;20635;-89
2022/12/24 03:59:58;;;;;;;7.53;2.70;;;;;;;11.82;100.00;97892.63;4173093;28;20625;-89
2022/12/24 04:02:01;;;;;;;10.63;3.27;;;;;;;11.83;100.00;97882.03;4146889;28;20676;-89
2022/12/24 04:04:04;;;;;;;11.27;2.80;;;;;;;11.83;100.00;97886.41;4163483;28;20659;-89
2022/12/24 04:06:09;;;;;;;11.73;2.93;;;;;;;11.84;100.00;97888.09;4155642;28;20756;-89
2022/12/24 04:08:12;;;;;;;13.37;2.80;;;;;;;11.82;100.00;97890.00;4156833;28;21235;-89
2022/12/24 04:10:17;;;;;;;8.93;2.93;;;;;;;11.83;100.00;97895.13;4165045;28;20691;-88
2022/12/24 04:12:20;;;;;;;11.40;3.70;;;;;;;11.82;100.00;97892.63;4138116;28;20631;-89
2022/12/24 04:14:23;;;;;;;8.73;2.77;;;;;;;11.80;100.00;97897.97;4166230;28;20625;-89
2022/12/24 04:16:26;;;;;;;10.50;2.73;;;;;;;11.82;100.00;97893.44;4152071;28;21067;-89
2022/12/24 04:18:30;;;;;;;11.23;3.20;;;;;;;11.81;100.00;97904.00;4160763;28;20641;-88
2022/12/24 04:20:33;;;;;;;11.27;3.00;;;;;;;11.77;100.00;97908.63;4140352;28;21255;-89
2022/12/24 04:22:36;;;;;;;9.30;2.80;;;;;;;11.75;100.00;97902.69;4157205;28;20630;-89
2022/12/24 04:24:39;;;;;;;7.47;2.60;;;;;;;11.77;100.00;97895.56;4157965;28;20656;-89
2022/12/24 04:26:43;;;;;;;9.67;2.80;;;;;;;11.75;100.00;97895.81;4152703;28;20740;-89
2022/12/24 04:28:46;;;;;;;18.43;3.30;;;;;;;11.73;100.00;97889.84;4170750;28;21099;-89
2022/12/24 04:30:50;;;;;;;10.57;3.30;;;;;;;11.73;100.00;97892.47;4140998;28;20646;-89
2022/12/24 04:32:53;;;;;;;13.33;2.90;;;;;;;11.71;100.00;97907.44;4174899;28;20620;-89
2022/12/24 04:34:56;;;;;;;10.20;2.93;;;;;;;11.65;100.00;97918.34;4170307;28;21061;-89
2022/12/24 04:36:59;;;;;;;10.43;2.90;;;;;;;11.55;100.00;97915.59;4160529;28;21176;-89
2022/12/24 04:39:02;;;;;;;12.03;2.67;;;;;;;11.44;100.00;97901.63;4184908;28;20628;-89
2022/12/24 04:41:07;;;;;;;9.60;2.83;;;;;;;11.36;100.00;97902.19;4171623;28;20636;-89
2022/12/24 04:43:11;;;;;;;8.00;2.50;;;;;;;11.33;100.00;97904.22;4153436;28;20687;-89
2022/12/24 04:45:15;;;;;;;13.07;2.73;;;;;;;11.25;100.00;97917.00;4155246;28;20670;-89
2022/12/24 04:47:18;;;;;;;10.40;2.83;;;;;;;11.22;100.00;97913.81;4142153;28;21031;-89
2022/12/24 04:49:21;;;;;;;8.43;2.63;;;;;;;11.19;100.00;97909.63;4166819;28;20683;-90
2022/12/24 04:51:26;;;;;;;8.90;2.90;;;;;;;11.22;100.00;97917.22;4156274;28;20988;-90
2022/12/24 04:53:29;;;;;;;9.97;2.93;;;;;;;11.21;100.00;97927.78;4156529;28;20624;-90
2022/12/24 04:55:32;;;;;;;8.40;3.03;;;;;;;11.25;100.00;97929.25;4141118;28;20635;-90
2022/12/24 04:57:36;;;;;;;10.50;3.30;;;;;;;11.28;100.00;97940.28;4153866;28;20634;-90
2022/12/24 04:59:41;;;;;;;13.43;3.47;;;;;;;11.27;100.00;97916.91;4188425;28;20639;-89
2022/12/24 05:01:44;;;;;;;7.40;2.70;;;;;;;11.24;100.00;97915.34;4158335;28;20641;-90
2022/12/24 05:03:48;;;;;;;8.70;2.87;;;;;;;11.21;100.00;97918.16;4155345;28;20760;-90
2022/12/24 05:05:51;;;;;;;10.50;3.80;;;;;;;11.21;100.00;97920.78;4153978;28;20633;-90
2022/12/24 05:08:03;;;;;;;6.67;2.83;;;;;;;11.25;100.00;97921.41;4138158;28;20688;-91
2022/12/24 05:10:07;;;;;;;14.23;2.90;;;;;;;11.28;100.00;97925.44;4174653;28;20666;-90
2022/12/24 05:12:10;;;;;;;8.60;2.90;;;;;;;11.30;100.00;97927.94;4158818;28;20640;-90
2022/12/24 05:14:13;;;;;;;10.40;3.40;;;;;;;11.32;100.00;97939.94;4139883;28;20638;-91
2022/12/24 05:16:19;;;;;;;9.10;3.40;;;;;;;11.34;100.00;97932.00;4154538;28;20644;-90
2022/12/24 05:18:23;;;;;;;11.00;3.20;;;;;;;11.38;100.00;97933.41;4156947;28;21197;-89
2022/12/24 05:20:26;;;;;;;8.20;2.90;;;;;;;11.37;100.00;97937.00;4157602;28;20633;-90
2022/12/24 05:27:10;;;;;;;8.30;2.93;;;;;;;11.44;100.00;97938.19;4170057;28;21553;-90
2022/12/24 05:29:13;;;;;;;9.20;3.10;;;;;;;11.46;100.00;97939.75;4171670;28;20644;-90
2022/12/24 05:31:18;;;;;;;10.53;3.07;;;;;;;11.47;100.00;97928.41;4167320;28;21262;-91
2022/12/24 05:33:21;;;;;;;12.97;3.03;;;;;;;11.49;100.00;97926.50;4161806;28;20991;-90
2022/12/24 05:35:24;;;;;;;13.93;3.00;;;;;;;11.49;100.00;97926.50;4141898;28;20781;-90
2022/12/24 05:37:27;;;;;;;10.90;2.53;;;;;;;11.52;100.00;97930.66;4153179;28;20629;-91
2022/12/24 05:39:30;;;;;;;12.33;3.23;;;;;;;11.53;100.00;97933.16;4188008;28;21077;-91
2022/12/24 05:41:34;;;;;;;13.67;3.03;;;;;;;11.53;100.00;97922.72;4145458;28;20627;-91
2022/12/24 05:43:37;;;;;;;13.40;2.90;;;;;;;11.55;100.00;97926.03;4159888;28;20714;-90
2022/12/24 05:45:40;;;;;;;11.47;3.40;;;;;;;11.56;100.00;97932.94;4159148;28;20645;-90
2022/12/24 05:47:45;;;;;;;12.30;2.67;;;;;;;11.58;100.00;97940.66;4152653;28;20661;-90
2022/12/24 05:49:48;;;;;;;10.53;2.93;;;;;;;11.59;100.00;97931.84;4168067;28;20763;-90
2022/12/24 05:51:51;;;;;;;15.03;3.10;;;;;;;11.59;100.00;97931.84;4155758;28;21014;-90
2022/12/24 05:53:54;;;;;;;13.57;3.10;;;;;;;11.58;100.00;97930.22;4156391;28;20683;-90
2022/12/24 05:56:03;;;;;;;11.73;2.33;;;;;;;11.57;100.00;97933.75;4169591;28;20683;-90
2022/12/24 05:58:06;;;;;;;11.30;3.30;;;;;;;11.54;100.00;97926.97;4159756;28;20625;-90
2022/12/24 06:00:10;;;;;;;16.97;3.30;;;;;;;11.53;100.00;97933.16;4158069;28;20634;-90
2022/12/24 06:02:16;;;;;;;10.60;3.20;;;;;;;11.54;100.00;97934.00;4143401;28;20645;-91
2022/12/24 06:04:21;;;;;;;9.90;3.97;;;;;;;11.54;100.00;97944.44;4161958;28;20633;-90
2022/12/24 06:06:30;;;;;;;5.47;2.60;;;;;;;11.56;100.00;97947.75;4161539;28;20625;-89
2022/12/24 06:08:34;;;;;;;15.97;3.90;;;;;;;11.57;100.00;97949.44;4146805;28;20844;-88
2022/12/24 06:10:37;;;;;;;14.17;3.17;;;;;;;11.58;100.00;97953.72;4188925;28;20681;-89
2022/12/24 06:12:40;;;;;;;17.07;3.40;;;;;;;11.56;100.00;97953.84;4161055;28;20640;-89
2022/12/24 06:14:44;;;;;;;8.83;3.57;;;;;;;11.57;100.00;97965.94;4185573;28;20622;-89
2022/12/24 06:16:47;;;;;;;9.40;3.40;;;;;;;11.57;100.00;97960.69;4190416;28;20737;-89
2022/12/24 06:18:50;;;;;;;6.93;3.60;;;;;;;11.59;100.00;97963.19;4159800;28;20765;-89
2022/12/24 06:20:56;;;;;;;10.30;3.60;;;;;;;11.55;100.00;97965.22;4158839;28;20625;-89
2022/12/24 06:22:59;;;;;;;14.50;4.50;;;;;;;11.52;100.00;97952.38;4161095;28;20628;-89
2022/12/24 06:25:03;;;;;;;12.07;3.20;;;;;;;11.50;100.00;97953.44;4156248;28;20641;-90
2022/12/24 06:27:06;;;;;;;9.10;3.23;;;;;;;11.47;100.00;97953.66;4175253;28;20682;-89
2022/12/24 06:29:10;;;;;;;7.93;3.07;;;;;;;11.44;100.00;97959.94;4154295;28;20980;-89
2022/12/24 06:31:15;;;;;;;11.20;3.53;;;;;;;11.42;100.00;97958.38;4157499;28;20688;-89
2022/12/24 06:33:19;;;;;;;21.93;4.60;;;;;;;11.40;100.00;97965.50;4162164;28;20662;-89
2022/12/24 06:35:22;;;;;;;11.13;3.27;;;;;;;11.39;100.00;97975.06;4157732;28;20724;-89
2022/12/24 06:37:26;;;;;;;8.77;3.50;;;;;;;11.40;100.00;97975.94;4156005;28;20752;-89
2022/12/24 06:39:29;;;;;;;8.97;2.83;;;;;;;11.39;100.00;97982.09;4159237;28;20688;-90
2022/12/24 06:41:34;;;;;;;11.80;2.93;;;;;;;11.39;100.00;97980.31;4154231;28;20677;-89
2022/12/24 06:43:37;;;;;;;8.83;3.30;;;;;;;11.39;100.00;97977.69;4157449;28;20642;-92
2022/12/24 06:45:45;;;;;;;7.07;3.57;;;;;;;11.39;100.00;97980.31;4160061;28;20627;-89
2022/12/24 06:47:48;;;;;;;11.53;3.50;;;;;;;11.37;100.00;97992.66;4143543;28;21252;-89
2022/12/24 06:49:51;;;;;;;11.37;3.40;;;;;;;11.36;100.00;97987.53;4156107;28;21001;-89
2022/12/24 06:51:54;;;;;;;5.97;3.00;;;;;;;11.34;100.00;97992.88;4171140;28;20636;-89
2022/12/24 06:53:59;;;;;;;8.20;3.20;;;;;;;11.33;100.00;97992.97;4136294;28;21016;-89
2022/12/24 06:56:03;;;;;;;8.17;2.90;;;;;;;11.30;100.00;98011.47;4153546;28;20623;-89
2022/12/24 06:58:06;;;;;;;6.93;2.87;;;;;;;11.31;100.00;98018.38;4172264;28;20624;-88
2022/12/24 07:00:11;;;;;;;7.40;2.67;;;;;;;11.32;100.00;98014.81;4187342;28;20644;-91
2022/12/24 07:02:14;;;;;;;9.77;3.50;;;;;;;11.31;100.00;98018.38;4159354;28;21231;-90
2022/12/24 07:04:17;;;;;;;10.93;3.30;;;;;;;11.27;100.00;98015.16;4142256;28;20634;-92
2022/12/24 07:06:25;;;;;;;12.33;4.07;;;;;;;11.23;100.00;98025.94;4139438;28;20652;-90
2022/12/24 07:08:28;;;;;;;9.33;2.67;;;;;;;11.17;100.00;98021.16;4160430;28;22652;-91
2022/12/24 07:10:34;;;;;;;7.47;2.60;;;;;;;11.16;100.00;98016.88;4137972;28;20733;-93
2022/12/24 07:12:37;;;;;;;8.90;3.40;;;;;;;11.12;100.00;98018.03;4172343;28;21223;-93
2022/12/24 07:14:40;;;;;;;7.00;3.50;;;;;;;11.09;100.00;98025.25;4187195;28;21315;-88
2022/12/24 07:16:44;;;;;;;8.13;4.20;;;;;;;11.09;100.00;98025.25;4140013;28;20653;-91
2022/12/24 07:18:47;;;;;;;10.73;3.50;;;;;;;11.08;100.00;98023.56;4143821;28;20676;-93
2022/12/24 07:20:50;;;;;;;7.47;3.20;;;;;;;11.06;100.00;98031.50;4159516;28;20636;-91
2022/12/24 07:22:53;;;;;;;10.57;3.10;;;;;;;11.04;100.00;98029.97;4156023;28;21337;-90
2022/12/24 07:24:56;;;;;;;9.50;4.47;;;;;;;11.03;100.00;98036.13;4152256;28;20638;-90
2022/12/24 07:27:01;;;;;;;9.87;3.40;;;;;;;11.02;100.00;98048.34;4155084;28;20658;-90
2022/12/24 07:29:04;;;;;;;7.37;3.73;;;;;;;11.04;100.00;98041.22;4135679;28;20643;-89
2022/12/24 07:31:07;;;;;;;7.00;3.30;;;;;;;11.05;100.00;98045.53;4148178;28;20688;-89
2022/12/24 07:33:10;;;;;;;6.37;3.10;;;;;;;11.06;100.00;98052.38;4167646;28;21258;-88
2022/12/24 07:35:13;;;;;;;14.77;3.07;;;;;;;11.08;99.81;98050.53;4170241;28;20632;-89
2022/12/24 07:37:16;;;;;;;11.00;3.90;;;;;;;11.07;99.67;98053.25;4135084;28;20628;-88
2022/12/24 07:39:19;;;;;;;13.57;5.47;;;;;;;11.06;100.00;98046.34;4154182;28;20637;-89
2022/12/24 07:41:22;;;;;;;12.80;6.13;;;;;;;11.04;100.00;98043.84;4143261;28;20637;-90
2022/12/24 07:43:28;;;;;;;9.00;5.30;;;;;;;11.05;100.00;98055.09;4154765;28;20680;-91
2022/12/24 07:45:31;;;;;;;11.10;4.70;;;;;;;11.03;100.00;98063.03;4149767;28;20645;-90
2022/12/24 07:47:34;;;;;;;14.60;4.60;;;;;;;11.03;100.00;98065.66;4153980;28;20760;-90
2022/12/24 07:49:37;;;;;;;9.50;4.63;;;;;;;11.01;100.00;98059.72;4142328;28;20646;-89
2022/12/24 07:51:40;;;;;;;10.57;4.53;;;;;;;11.01;99.65;98059.72;4154006;28;20637;-90
2022/12/24 07:53:46;;;;;;;9.00;3.93;;;;;;;10.99;99.32;98056.38;4168332;28;21521;-89
2022/12/24 07:55:49;;;;;;;10.70;5.10;;;;;;;11.01;100.00;98054.50;4157892;28;20676;-89
2022/12/24 07:57:53;;;;;;;11.47;4.90;;;;;;;11.02;100.00;98055.31;4152099;28;20692;-90
2022/12/24 07:59:57;;;;;;;9.80;4.80;;;;;;;11.04;100.00;98062.09;4157369;28;21182;-89
2022/12/24 08:02:00;;;;;;;12.43;5.77;;;;;;;11.07;100.00;98069.72;4170270;28;20634;-89
2022/12/24 08:04:04;;;;;;;12.17;6.87;;;;;;;11.07;100.00;98064.50;4152229;28;20638;-89
2022/12/24 08:06:07;;;;;;;10.27;7.40;;;;;;;11.07;100.00;98064.50;4153418;28;20644;-90
2022/12/24 08:08:10;;;;;;;10.63;7.70;;;;;;;11.09;99.80;98065.22;4152586;28;20695;-90
2022/12/24 08:10:13;;;;;;;15.13;8.50;;;;;;;11.11;100.00;98070.34;4156024;28;20686;-89
2022/12/24 08:12:16;;;;;;;16.17;8.53;;;;;;;11.05;100.00;98066.41;4170370;28;20632;-90
2022/12/24 08:14:19;;;;;;;29.00;18.33;;;;;;;11.03;100.00;98059.59;4157956;28;21226;-89
2022/12/24 08:16:27;;;;;;;11.30;7.40;;;;;;;11.00;99.35;98054.59;4158045;28;20633;-89
2022/12/24 08:18:30;;;;;;;13.63;5.80;;;;;;;10.98;100.00;98067.75;4144258;28;20693;-89
2022/12/24 08:20:33;;;;;;;13.00;5.53;;;;;;;10.95;99.74;98067.97;4189121;28;20742;-89
2022/12/24 08:22:37;;;;;;;12.97;6.77;;;;;;;10.97;100.00;98065.25;4142707;28;20639;-90
2022/12/24 08:24:40;;;;;;;10.37;5.40;;;;;;;11.01;100.00;98079.78;4144053;28;20630;-90
2022/12/24 08:26:43;;;;;;;12.80;7.43;;;;;;;11.04;100.00;98085.59;4137742;28;20649;-89
2022/12/24 08:28:46;;;;;;;10.40;5.20;;;;;;;11.07;100.00;98085.38;4157574;28;20636;-90
2022/12/24 08:30:50;;;;;;;17.07;7.00;;;;;;;11.05;100.00;98089.88;4170248;28;20657;-89
2022/12/24 08:32:55;;;;;;;13.73;7.50;;;;;;;11.01;100.00;98080.59;4142177;28;20635;-89
2022/12/24 08:34:58;;;;;;;17.60;8.13;;;;;;;10.99;99.61;98094.69;4155716;28;20675;-89
2022/12/24 08:37:01;;;;;;;12.37;6.90;;;;;;;10.99;100.00;98100.75;4182285;28;20632;-89
2022/12/24 08:39:07;;;;;;;13.10;6.23;;;;;;;11.04;100.00;98097.81;4133418;28;20634;-88
2022/12/24 08:41:10;;;;;;;16.37;5.10;;;;;;;11.10;100.00;98103.44;4135205;28;20653;-89
2022/12/24 08:43:13;;;;;;;9.77;5.80;;;;;;;11.14;100.00;98104.03;4153214;28;20653;-89
2022/12/24 08:45:17;;;;;;;12.20;4.23;;;;;;;11.17;99.46;98103.81;4147861;28;21595;-93
2022/12/24 08:47:21;;;;;;;11.33;3.50;;;;;;;11.20;99.85;98112.31;4152165;28;20633;-90
2022/12/24 08:49:25;;;;;;;10.50;3.70;;;;;;;11.29;99.48;98109.88;4156898;28;20670;-93
2022/12/24 08:51:28;;;;;;;11.17;3.30;;;;;;;11.34;100.00;98120.81;4156378;28;20644;-90
2022/12/24 08:53:32;;;;;;;10.00;4.50;;;;;;;11.39;99.77;98112.66;4147336;28;20973;-93
2022/12/24 08:55:35;;;;;;;9.80;3.40;;;;;;;11.46;99.39;98111.28;4156716;28;21225;-92
2022/12/24 08:57:38;;;;;;;9.43;2.83;;;;;;;11.49;99.22;98116.31;4143480;28;20634;-90
2022/12/24 08:59:41;;;;;;;9.30;4.43;;;;;;;11.51;100.00;98119.66;4160429;28;20665;-91
2022/12/24 09:01:45;;;;;;;10.83;5.30;;;;;;;11.56;100.00;98125.38;4147991;28;20688;-92
2022/12/24 09:03:49;;;;;;;8.53;4.07;;;;;;;11.63;98.67;98132.66;4161448;28;21208;-94
2022/12/24 09:05:54;;;;;;;10.83;3.90;;;;;;;11.70;98.51;98133.91;4172440;28;20677;-91
2022/12/24 09:07:59;;;;;;;11.17;4.40;;;;;;;11.86;99.60;98135.28;4160238;28;20645;-94
2022/12/24 09:10:04;;;;;;;10.00;5.40;;;;;;;11.93;98.13;98136.50;4150863;28;20654;-95
2022/12/24 09:12:09;;;;;;;13.27;8.90;;;;;;;11.95;96.66;98145.06;4145033;28;20626;-92
2022/12/24 09:14:12;;;;;;;11.70;7.67;;;;;;;11.99;97.19;98141.28;4194927;28;20625;-91
2022/12/24 09:16:16;;;;;;;10.33;5.13;;;;;;;12.05;98.29;98140.00;4158540;28;20683;-95
2022/12/24 09:18:19;;;;;;;14.53;8.13;;;;;;;12.02;99.72;98146.28;4160177;28;21044;-94
2022/12/24 09:20:22;;;;;;;10.40;5.80;;;;;;;12.00;99.57;98148.19;4143665;28;20740;-90
2022/12/24 09:22:28;;;;;;;12.03;6.40;;;;;;;12.00;99.64;98145.56;4164028;28;21465;-91
2022/12/24 09:24:32;;;;;;;12.50;5.67;;;;;;;11.99;100.00;98146.50;4178092;28;20636;-94
2022/12/24 09:26:36;;;;;;;11.97;5.90;;;;;;;11.97;99.84;98143.19;4147626;28;20718;-95
2022/12/24 09:28:40;;;;;;;14.30;7.77;;;;;;;11.97;98.42;98156.25;4170457;28;20632;-95
2022/12/24 09:30:47;;;;;;;9.60;4.80;;;;;;;12.00;99.01;98161.25;4157554;28;20767;-92
2022/12/24 09:32:56;;;;;;;13.40;6.23;;;;;;;12.16;98.04;98167.00;4136893;28;20984;-90
2022/12/24 09:35:08;;;;;;;13.63;6.10;;;;;;;12.27;98.47;98180.97;4153737;28;20736;-94
2022/12/24 09:37:11;;;;;;;13.73;5.50;;;;;;;12.39;97.60;98179.25;4143408;28;20682;-94
2022/12/24 09:39:16;;;;;;;10.60;6.20;;;;;;;12.46;97.44;98183.06;4161456;28;20703;-93
2022/12/24 09:41:33;;;;;;;9.83;3.40;;;;;;;12.56;96.78;98178.81;4141230;28;20633;-94
2022/12/24 09:43:36;;;;;;;10.30;3.23;;;;;;;12.66;96.32;98182.41;4160990;28;20663;-92
2022/12/24 09:45:42;;;;;;;9.70;4.17;;;;;;;12.74;96.63;98184.31;4192395;28;20728;-95
2022/12/24 09:47:48;;;;;;;8.30;4.47;;;;;;;12.83;96.42;98186.28;4176537;28;20633;-94